Portada
METAR-TAF:

METAR-TAF

Aeroports :

Phitsanulok, Tailàndia

latitud: 16-46-23N, longitud: 100-16-56E, altitud: 47 m

Observació

L'informe es va fer fa 4 hores i 31 minuts, a les 14:00 UTC
Vent calma
Temperatura 28°C
Humitat 45%
Pressió 1008 hPa
Visibilitat: 6000 m

METAR: VTPP 221400Z 00000KT 6000 NSC 28/15 Q1008 NOSIG

Hora: 01:31 (18:31 UTC)

Pronòstic

L'informe es va fer fa 1 hora i 31 minuts, a les 17:00 UTC
Pronòstic vàlid del 22 a les 18 UTC al 23 a les 18 UTC
Vent 5 kt del Nord-Oest
Visibilitat: 7000 m
Escasses núvols a una alçada de 3000 ft
Evolucionant progressivament
l' 22 a les 21 UTC al 22 a les 23 UTC
Visibilitat: 5000 m
boirina
Evolucionant progressivament
l' 23 a les 01 UTC al 23 a les 03 UTC
Visibilitat: 8000 m

TAF: VTPP 221700Z 2218/2318 31005KT 7000 FEW030 BECMG 2221/2223 5000 BR BECMG 2301/2303 8000 NSW

Observacions i pronòstics meteorològics de més de 4000 aeroports (METAR i TAF).

Les estacions disponibles són els punts grocs i vermells al mapa.

Posi el ratolí al punt desitjat per veure el nom de l'estació.

Feu clic per veure les observacions i els pronòstics meteorològics.

Per canviar el mapa: feu clic els botons verds amb una creu de color negre per apropar; al botó verd amb un guió per allunyar la imatge; o en les fletxes verdes per a mapes adjacents.


METAR-TAF: